Time;durP1;ratioP1;P1;durP2;ratioP2;P2;SDS_P1;SDS_P2;PMS_P1;PMS_P2;Temp;Humidity;BMP_temperature;BMP_pressure;BME280_temperature;BME280_humidity;BME280_pressure;Samples;Min_cycle;Max_cycle;Signal;HPM_P1;HPM_P2
2023/04/09 00:00:43;;;;;;;;;;;;;;;16.57;67.24;102318.44;1041798;28;988;-67
2023/04/09 00:01:33;;;;;;;;;;;;;;;16.55;66.79;102310.47;1045929;28;709;-67
2023/04/09 00:02:25;;;;;;;;;;;;;;;16.57;66.80;102316.63;1044812;28;710;-67
2023/04/09 00:03:15;;;;;;;;;;;;;;;16.57;66.93;102313.06;1040959;28;691;-68
2023/04/09 00:04:06;;;;;;;;;;;;;;;16.57;67.04;102311.22;1042578;28;686;-67
2023/04/09 00:04:56;;;;;;;;;;;;;;;16.56;66.94;102314.03;1041573;28;709;-67
2023/04/09 00:05:47;;;;;;;;;;;;;;;16.56;67.03;102314.03;1043152;28;988;-67
2023/04/09 00:06:37;;;;;;;;;;;;;;;16.57;67.01;102316.63;1045128;28;741;-67
2023/04/09 00:07:28;;;;;;;;;;;;;;;16.56;66.86;102314.03;1044895;28;1234;-67
2023/04/09 00:08:18;;;;;;;;;;;;;;;16.57;67.46;102318.44;1045587;28;642;-67
2023/04/09 00:09:08;;;;;;;;;;;;;;;16.57;66.85;102322.00;1043696;28;1390;-67
2023/04/09 00:09:59;;;;;;;;;;;;;;;16.59;66.76;102316.50;1043611;28;1181;-67
2023/04/09 00:10:49;;;;;;;;;;;;;;;16.54;67.05;102316.81;1045612;28;871;-67
2023/04/09 00:11:40;;;;;;;;;;;;;;;16.57;66.93;102310.38;1045415;28;1114;-67
2023/04/09 00:12:30;;;;;;;;;;;;;;;16.58;67.13;102317.47;1042025;28;709;-67
2023/04/09 00:13:21;;;;;;;;;;;;;;;16.59;66.98;102314.69;1041500;28;728;-67
2023/04/09 00:14:11;;;;;;;;;;;;;;;16.61;67.24;102311.91;1041467;28;705;-67
2023/04/09 00:15:02;;;;;;;;;;;;;;;16.61;66.65;102311.91;1041202;28;698;-67
2023/04/09 00:15:52;;;;;;;;;;;;;;;16.61;66.71;102318.16;1045543;28;1886;-67
2023/04/09 00:16:42;;;;;;;;;;;;;;;16.62;66.55;102317.19;1045354;28;1078;-67
2023/04/09 00:17:33;;;;;;;;;;;;;;;16.58;66.86;102314.78;1044343;28;626;-67
2023/04/09 00:18:23;;;;;;;;;;;;;;;16.60;66.54;102312.84;1044186;28;1008;-67
2023/04/09 00:19:14;;;;;;;;;;;;;;;16.55;67.33;102317.69;1045592;28;653;-67
2023/04/09 00:20:04;;;;;;;;;;;;;;;16.51;66.97;102316.16;1044614;28;1300;-67
2023/04/09 00:20:55;;;;;;;;;;;;;;;16.54;66.82;102310.56;1045059;28;615;-67
2023/04/09 00:21:45;;;;;;;;;;;;;;;16.55;66.96;102313.16;1045507;28;681;-67
2023/04/09 00:22:36;;;;;;;;;;;;;;;16.56;67.11;102314.03;1042098;28;1323;-67
2023/04/09 00:23:26;;;;;;;;;;;;;;;16.51;66.82;102310.75;1042071;28;871;-67
2023/04/09 00:24:16;;;;;;;;;;;;;;;16.51;67.24;102311.63;1045133;28;641;-67
2023/04/09 00:25:07;;;;;;;;;;;;;;;16.53;66.69;102308.84;1042061;28;1122;-67
2023/04/09 00:25:57;;;;;;;;;;;;;;;16.54;66.82;102310.56;1044289;28;1541;-67
2023/04/09 00:26:48;;;;;;;;;;;;;;;16.55;67.11;102306.91;1044979;28;1546;-67
2023/04/09 00:27:38;;;;;;;;;;;;;;;16.57;66.62;102307.69;1044399;28;1463;-67
2023/04/09 00:28:29;;;;;;;;;;;;;;;16.54;66.43;102310.56;1042405;28;1463;-67
2023/04/09 00:29:19;;;;;;;;;;;;;;;16.50;66.79;102309.03;1042401;28;1218;-66
2023/04/09 00:30:10;;;;;;;;;;;;;;;16.52;67.07;102309.81;1042188;28;1526;-67
2023/04/09 00:31:00;;;;;;;;;;;;;;;16.50;66.78;102304.53;1042217;28;1404;-66
2023/04/09 00:31:51;;;;;;;;;;;;;;;16.49;66.88;102301.94;1044142;28;1527;-67
2023/04/09 00:32:41;;;;;;;;;;;;;;;16.45;66.64;102297.75;1044578;28;987;-66
2023/04/09 00:33:32;;;;;;;;;;;;;;;16.49;67.15;102301.94;1042423;28;617;-66
2023/04/09 00:34:22;;;;;;;;;;;;;;;16.50;66.66;102304.53;1044646;28;943;-65
2023/04/09 00:35:12;;;;;;;;;;;;;;;16.52;66.56;102296.34;1042475;28;1372;-66
2023/04/09 00:36:03;;;;;;;;;;;;;;;16.49;66.66;102299.25;1044684;28;1951;-66
2023/04/09 00:36:53;;;;;;;;;;;;;;;16.50;67.20;102303.66;1044086;28;1305;-65
2023/04/09 00:37:44;;;;;;;;;;;;;;;16.51;66.56;102305.38;1042657;28;1554;-66
2023/04/09 00:38:34;;;;;;;;;;;;;;;16.51;66.80;102297.31;1040849;28;670;-65
2023/04/09 00:39:25;;;;;;;;;;;;;;;16.50;66.99;102298.28;1040740;28;661;-65
2023/04/09 00:40:15;;;;;;;;;;;;;;;16.43;66.92;102300.53;1041494;28;592;-66
2023/04/09 00:41:06;;;;;;;;;;;;;;;16.47;66.84;102296.69;1041216;28;675;-67
2023/04/09 00:41:56;;;;;;;;;;;;;;;16.48;66.58;102295.69;1041302;28;1392;-67
2023/04/09 00:42:47;;;;;;;;;;;;;;;16.50;66.88;102298.28;1041741;28;1302;-65
2023/04/09 00:43:37;;;;;;;;;;;;;;;16.49;66.93;102296.53;1045011;28;791;-65
2023/04/09 00:44:28;;;;;;;;;;;;;;;16.49;67.01;102296.53;1042756;28;1377;-66
2023/04/09 00:45:18;;;;;;;;;;;;;;;16.48;66.68;102289.47;1040331;28;1277;-66
2023/04/09 00:46:09;;;;;;;;;;;;;;;16.49;66.70;102285.78;1043659;28;1491;-66
2023/04/09 00:46:59;;;;;;;;;;;;;;;16.46;67.19;102294.09;1041375;28;1400;-66
2023/04/09 00:47:50;;;;;;;;;;;;;;;16.45;66.81;102295.91;1041227;28;1375;-66
2023/04/09 00:48:40;;;;;;;;;;;;;;;16.47;67.31;102298.50;1040458;28;1463;-66
2023/04/09 00:49:31;;;;;;;;;;;;;;;16.49;67.00;102291.16;1044213;28;1531;-66
2023/04/09 00:50:21;;;;;;;;;;;;;;;16.49;66.41;102293.84;1044163;28;1118;-67
2023/04/09 00:51:12;;;;;;;;;;;;;;;16.49;66.88;102296.53;1041221;28;1318;-67
2023/04/09 00:52:02;;;;;;;;;;;;;;;16.50;66.76;102295.59;1043975;28;1353;-67
2023/04/09 00:52:52;;;;;;;;;;;;;;;16.45;67.20;102286.97;1043113;28;1511;-67
2023/04/09 00:53:43;;;;;;;;;;;;;;;16.46;66.95;102297.63;1043232;28;1444;-65
2023/04/09 00:54:33;;;;;;;;;;;;;;;16.47;66.86;102287.75;1045388;28;654;-65
2023/04/09 00:55:24;;;;;;;;;;;;;;;16.45;67.25;102290.53;1044472;28;701;-66
2023/04/09 00:56:14;;;;;;;;;;;;;;;16.46;66.82;102292.25;1042347;28;1890;-66
2023/04/09 00:57:05;;;;;;;;;;;;;;;16.47;66.59;102291.28;1043669;28;1322;-65
2023/04/09 00:57:55;;;;;;;;;;;;;;;16.46;66.90;102291.41;1039294;28;1565;-66
2023/04/09 00:58:46;;;;;;;;;;;;;;;16.45;66.96;102286.97;1043733;28;1413;-66
2023/04/09 00:59:36;;;;;;;;;;;;;;;16.46;67.10;102280.63;1042532;28;1408;-66
2023/04/09 01:00:27;;;;;;;;;;;;;;;16.48;66.47;102289.47;1041389;28;1404;-66
2023/04/09 01:01:17;;;;;;;;;;;;;;;16.46;67.11;102286.00;1040611;28;1309;-66
2023/04/09 01:02:07;;;;;;;;;;;;;;;16.45;66.82;102285.16;1041386;28;1340;-66
2023/04/09 01:02:58;;;;;;;;;;;;;;;16.44;67.13;102280.72;1044112;28;821;-66
2023/04/09 01:03:48;;;;;;;;;;;;;;;16.45;66.81;102278.91;1041906;28;1392;-67
2023/04/09 01:04:39;;;;;;;;;;;;;;;16.44;66.69;102282.56;1040885;28;757;-67
2023/04/09 01:05:29;;;;;;;;;;;;;;;16.44;66.57;102283.41;1042761;28;1449;-67
2023/04/09 01:06:20;;;;;;;;;;;;;;;16.44;66.79;102280.72;1040987;28;1345;-66
2023/04/09 01:07:10;;;;;;;;;;;;;;;16.41;66.81;102272.84;1044327;28;1507;-66
2023/04/09 01:08:01;;;;;;;;;;;;;;;16.41;66.75;102283.63;1042725;28;686;-67
2023/04/09 01:08:51;;;;;;;;;;;;;;;16.42;66.66;102284.50;1042333;28;1032;-67
2023/04/09 01:09:42;;;;;;;;;;;;;;;16.41;67.51;102282.75;1041616;28;1365;-66
2023/04/09 01:10:32;;;;;;;;;;;;;;;16.40;67.32;102281.03;1040838;28;1373;-67
2023/04/09 01:11:22;;;;;;;;;;;;;;;16.41;66.80;102280.06;1041460;28;1559;-66
2023/04/09 01:12:13;;;;;;;;;;;;;;;16.39;67.47;102282.00;1041784;28;1289;-67
2023/04/09 01:13:03;;;;;;;;;;;;;;;16.40;67.43;102275.66;1043585;28;1269;-66
2023/04/09 01:13:54;;;;;;;;;;;;;;;16.38;66.67;102273.06;1044177;28;1425;-67
2023/04/09 01:14:45;;;;;;;;;;;;;;;16.37;67.18;102270.47;1039935;28;1353;-67
2023/04/09 01:15:35;;;;;;;;;;;;;;;16.38;67.27;102275.75;1041167;28;1235;-67
2023/04/09 01:16:26;;;;;;;;;;;;;;;16.38;67.35;102273.06;1042662;28;1433;-66
2023/04/09 01:17:16;;;;;;;;;;;;;;;16.37;67.21;102276.72;1041176;28;1519;-66
2023/04/09 01:18:06;;;;;;;;;;;;;;;16.37;67.20;102273.16;1043088;28;1249;-66
2023/04/09 01:18:57;;;;;;;;;;;;;;;16.35;67.21;102277.78;1040093;28;1499;-66
2023/04/09 01:19:47;;;;;;;;;;;;;;;16.35;67.30;102273.25;1041685;28;1207;-66
2023/04/09 01:20:38;;;;;;;;;;;;;;;16.38;67.37;102269.50;1041497;28;1573;-66
2023/04/09 01:21:28;;;;;;;;;;;;;;;16.38;67.35;102269.50;1042814;28;1403;-66
2023/04/09 01:22:19;;;;;;;;;;;;;;;16.38;66.98;102272.19;1044834;28;650;-66
2023/04/09 01:23:09;;;;;;;;;;;;;;;16.39;67.80;102271.22;1041885;28;1313;-66
2023/04/09 01:24:00;;;;;;;;;;;;;;;16.36;67.57;102271.44;1044331;28;720;-66
2023/04/09 01:24:50;;;;;;;;;;;;;;;16.37;67.47;102273.16;1042531;28;992;-67
2023/04/09 01:25:41;;;;;;;;;;;;;;;16.35;67.45;102269.69;1043179;28;734;-66
2023/04/09 01:26:31;;;;;;;;;;;;;;;16.36;67.16;102274.13;1044767;28;661;-66
2023/04/09 01:27:21;;;;;;;;;;;;;;;16.36;67.18;102279.50;1044841;28;702;-66
2023/04/09 01:28:12;;;;;;;;;;;;;;;16.39;66.82;102271.22;1042676;28;1277;-66
2023/04/09 01:29:02;;;;;;;;;;;;;;;16.35;67.37;102273.25;1043922;28;1467;-66
2023/04/09 01:29:53;;;;;;;;;;;;;;;16.37;66.96;102267.78;1043993;28;1237;-66
2023/04/09 01:30:45;;;;;;;;;;;;;;;16.37;67.05;102262.41;1041167;28;1475;-66
2023/04/09 01:31:36;;;;;;;;;;;;;;;16.38;67.17;102277.56;1040161;28;1439;-66
2023/04/09 01:32:26;;;;;;;;;;;;;;;16.36;67.14;102269.59;1043434;28;1550;-67
2023/04/09 01:33:16;;;;;;;;;;;;;;;16.33;67.13;102275.19;1040584;28;1428;-66
2023/04/09 01:34:07;;;;;;;;;;;;;;;16.31;67.61;102272.59;1041670;28;1004;-66
2023/04/09 01:34:57;;;;;;;;;;;;;;;16.31;67.53;102261.81;1043139;28;1388;-66
2023/04/09 01:35:48;;;;;;;;;;;;;;;16.31;67.10;102272.59;1043682;28;1331;-67
2023/04/09 01:36:38;;;;;;;;;;;;;;;16.30;67.12;102273.56;1040153;28;707;-67
2023/04/09 01:37:28;;;;;;;;;;;;;;;16.28;67.13;102270.13;1044598;28;1008;-67
2023/04/09 01:38:19;;;;;;;;;;;;;;;16.29;67.31;102269.16;1044830;28;1326;-67
2023/04/09 01:39:09;;;;;;;;;;;;;;;16.27;67.14;102271.09;1042230;28;1364;-67
2023/04/09 01:40:00;;;;;;;;;;;;;;;16.27;67.40;102265.72;1041770;28;1428;-67
2023/04/09 01:40:50;;;;;;;;;;;;;;;16.29;66.85;102269.16;1041092;28;1336;-67
2023/04/09 01:41:41;;;;;;;;;;;;;;;16.27;67.87;102260.34;1042575;28;1429;-66
2023/04/09 01:42:31;;;;;;;;;;;;;;;16.26;67.43;102269.38;1045115;28;626;-67
2023/04/09 01:43:22;;;;;;;;;;;;;;;16.27;67.95;102268.41;1042523;28;1378;-67
2023/04/09 01:44:12;;;;;;;;;;;;;;;16.28;67.38;102266.56;1042812;28;1254;-67
2023/04/09 01:45:02;;;;;;;;;;;;;;;16.27;67.05;102265.72;1044128;28;1544;-67
2023/04/09 01:45:53;;;;;;;;;;;;;;;16.26;67.28;102265.81;1042685;28;1386;-67
2023/04/09 01:46:43;;;;;;;;;;;;;;;16.24;67.33;102265.91;1042970;28;1498;-67
2023/04/09 01:47:34;;;;;;;;;;;;;;;16.27;67.23;102263.03;1044759;28;1397;-66
2023/04/09 01:48:24;;;;;;;;;;;;;;;16.27;67.50;102265.72;1042282;28;1186;-67
2023/04/09 01:49:14;;;;;;;;;;;;;;;16.26;66.74;102263.13;1040630;28;1515;-66
2023/04/09 01:50:05;;;;;;;;;;;;;;;16.26;66.91;102263.13;1043140;28;1238;-67
2023/04/09 01:50:55;;;;;;;;;;;;;;;16.27;67.20;102265.72;1040643;28;1526;-67
2023/04/09 01:51:46;;;;;;;;;;;;;;;16.28;67.26;102262.06;1044069;28;1380;-67
2023/04/09 01:52:36;;;;;;;;;;;;;;;16.29;67.05;102263.78;1044901;28;1390;-67
2023/04/09 01:53:27;;;;;;;;;;;;;;;16.27;66.98;102262.16;1044398;28;1332;-67
2023/04/09 01:54:17;;;;;;;;;;;;;;;16.27;66.98;102263.03;1041129;28;1368;-66
2023/04/09 01:55:08;;;;;;;;;;;;;;;16.26;66.76;102269.38;1042596;28;1480;-67
2023/04/09 01:55:58;;;;;;;;;;;;;;;16.25;67.67;102267.63;1043949;28;1961;-67
2023/04/09 01:56:49;;;;;;;;;;;;;;;16.28;66.81;102267.44;1040820;28;1451;-67
2023/04/09 01:57:39;;;;;;;;;;;;;;;16.23;67.30;102269.56;1041566;28;1458;-66
2023/04/09 01:58:32;;;;;;;;;;;;;;;16.21;67.18;102268.78;1043301;28;1432;-66
2023/04/09 01:59:23;;;;;;;;;;;;;;;16.21;67.00;102265.25;1043601;28;983;-66
2023/04/09 02:00:13;;;;;;;;;;;;;;;16.21;67.39;102270.63;1042335;28;1376;-66
2023/04/09 02:01:04;;;;;;;;;;;;;;;16.21;66.79;102260.72;1042383;28;1455;-67
2023/04/09 02:01:54;;;;;;;;;;;;;;;16.21;67.33;102271.47;1040317;28;1381;-66
2023/04/09 02:02:45;;;;;;;;;;;;;;;16.23;67.60;102264.19;1043314;28;1456;-66
2023/04/09 02:03:35;;;;;;;;;;;;;;;16.23;67.04;102272.25;1043963;28;1397;-66
2023/04/09 02:04:26;;;;;;;;;;;;;;;16.22;66.80;102262.44;1041621;28;1360;-66
2023/04/09 02:05:16;;;;;;;;;;;;;;;16.22;66.96;102266.97;1041333;28;1397;-66
2023/04/09 02:06:07;;;;;;;;;;;;;;;16.19;67.29;102265.34;1041373;28;1456;-66
2023/04/09 02:06:58;;;;;;;;;;;;;;;16.20;67.36;102272.44;1043796;28;1242;-67
2023/04/09 02:07:48;;;;;;;;;;;;;;;16.22;67.00;102265.16;1042151;28;1452;-66
2023/04/09 02:08:39;;;;;;;;;;;;;;;16.26;67.33;102264.00;1043871;28;1378;-66
2023/04/09 02:09:29;;;;;;;;;;;;;;;16.24;67.58;102265.03;1044606;28;659;-66
2023/04/09 02:10:20;;;;;;;;;;;;;;;16.26;67.31;102263.13;1043364;28;937;-66
2023/04/09 02:11:11;;;;;;;;;;;;;;;16.26;66.90;102266.69;1041120;28;1611;-66
2023/04/09 02:12:01;;;;;;;;;;;;;;;16.25;66.89;102264.94;1043593;28;1496;-66
2023/04/09 02:12:52;;;;;;;;;;;;;;;16.26;67.47;102263.13;1040439;28;1372;-66
2023/04/09 02:13:42;;;;;;;;;;;;;;;16.26;66.93;102258.59;1043456;28;1011;-66
2023/04/09 02:14:32;;;;;;;;;;;;;;;16.24;66.92;102265.03;1044015;28;1392;-67
2023/04/09 02:15:23;;;;;;;;;;;;;;;16.24;67.29;102265.03;1043247;28;1442;-67
2023/04/09 02:16:13;;;;;;;;;;;;;;;16.24;66.95;102263.22;1040297;28;1990;-66
2023/04/09 02:17:04;;;;;;;;;;;;;;;16.25;66.73;102259.56;1041846;28;1419;-66
2023/04/09 02:17:54;;;;;;;;;;;;;;;16.22;67.35;102261.59;1041129;28;594;-67
2023/04/09 02:18:45;;;;;;;;;;;;;;;16.17;67.02;102250.25;1044829;28;1394;-67
2023/04/09 02:19:35;;;;;;;;;;;;;;;16.20;67.20;102255.44;1045044;28;744;-67
2023/04/09 02:20:26;;;;;;;;;;;;;;;16.19;66.78;102259.97;1044301;28;1305;-66
2023/04/09 02:21:17;;;;;;;;;;;;;;;16.20;67.01;102256.31;1040919;28;1360;-66
2023/04/09 02:22:07;;;;;;;;;;;;;;;16.17;67.07;102255.66;1040406;28;1496;-67
2023/04/09 02:22:58;;;;;;;;;;;;;;;16.17;67.13;102264.56;1041815;28;1394;-66
2023/04/09 02:23:48;;;;;;;;;;;;;;;16.19;66.94;102261.78;1041175;28;1483;-66
2023/04/09 02:24:39;;;;;;;;;;;;;;;16.20;67.34;102261.69;1041686;28;1412;-66
2023/04/09 02:25:30;;;;;;;;;;;;;;;16.18;67.27;102258.22;1040766;28;1532;-66
2023/04/09 02:26:20;;;;;;;;;;;;;;;16.20;66.72;102258.13;1041033;28;1373;-66
2023/04/09 02:27:10;;;;;;;;;;;;;;;16.19;67.23;102259.97;1040214;28;1349;-66
2023/04/09 02:28:01;;;;;;;;;;;;;;;16.18;67.21;102252.84;1043072;28;1515;-66
2023/04/09 02:28:51;;;;;;;;;;;;;;;16.19;66.98;102259.97;1040561;28;1348;-66
2023/04/09 02:29:42;;;;;;;;;;;;;;;16.16;66.74;102256.59;1044655;28;1621;-66
2023/04/09 02:30:32;;;;;;;;;;;;;;;16.12;67.35;102266.69;1042470;28;1300;-66
2023/04/09 02:31:22;;;;;;;;;;;;;;;16.10;67.60;102257.91;1043120;28;1467;-66
2023/04/09 02:32:13;;;;;;;;;;;;;;;16.13;67.62;102256.81;1044588;28;701;-66
2023/04/09 02:33:03;;;;;;;;;;;;;;;16.09;67.23;102253.47;1045855;28;829;-66
2023/04/09 02:33:54;;;;;;;;;;;;;;;16.08;66.95;102249.06;1042296;28;1496;-66
2023/04/09 02:34:44;;;;;;;;;;;;;;;16.07;66.97;102250.03;1042241;28;1370;-67
2023/04/09 02:35:35;;;;;;;;;;;;;;;16.09;67.07;102250.78;1040782;28;1491;-66
2023/04/09 02:36:26;;;;;;;;;;;;;;;16.08;67.16;102249.06;1044408;28;1969;-66
2023/04/09 02:37:17;;;;;;;;;;;;;;;16.13;66.93;102254.97;1042373;28;1515;-66
2023/04/09 02:38:12;;;;;;;;;;;;;;;16.16;67.42;102253.91;1040389;28;1431;-66
2023/04/09 02:39:03;;;;;;;;;;;;;;;16.14;66.79;102247.78;1041820;28;1423;-66
2023/04/09 02:39:53;;;;;;;;;;;;;;;16.14;66.85;102258.53;1044289;28;1370;-66
2023/04/09 02:40:43;;;;;;;;;;;;;;;16.13;67.32;102254.13;1041641;28;1395;-66
2023/04/09 02:41:34;;;;;;;;;;;;;;;16.13;67.06;102252.28;1044074;28;1381;-66
2023/04/09 02:42:24;;;;;;;;;;;;;;;16.10;67.22;102246.28;1044605;28;1436;-66
2023/04/09 02:43:15;;;;;;;;;;;;;;;16.11;67.50;102245.31;1045132;28;1344;-66
2023/04/09 02:44:05;;;;;;;;;;;;;;;16.11;67.15;102250.69;1045172;28;1374;-66
2023/04/09 02:44:56;;;;;;;;;;;;;;;16.11;66.84;102243.50;1041276;28;1412;-66
2023/04/09 02:45:46;;;;;;;;;;;;;;;16.12;67.34;102253.25;1045214;28;1431;-66
2023/04/09 02:46:36;;;;;;;;;;;;;;;16.10;67.44;102248.97;1044425;28;1353;-66
2023/04/09 02:47:29;;;;;;;;;;;;;;;16.10;66.88;102247.13;1045320;28;693;-66
2023/04/09 02:48:19;;;;;;;;;;;;;;;16.10;66.72;102247.13;1044367;28;1278;-66
2023/04/09 02:49:10;;;;;;;;;;;;;;;16.11;66.96;102248.00;1043684;28;1483;-67
2023/04/09 02:50:00;;;;;;;;;;;;;;;16.12;67.50;102245.19;1041343;28;1302;-67
2023/04/09 02:50:50;;;;;;;;;;;;;;;16.10;67.40;102240.91;1045255;28;661;-66
2023/04/09 02:51:41;;;;;;;;;;;;;;;16.08;67.23;102242.81;1045053;28;654;-67
2023/04/09 02:52:31;;;;;;;;;;;;;;;16.07;67.38;102243.78;1041536;28;1338;-67
2023/04/09 02:53:22;;;;;;;;;;;;;;;16.06;67.64;102242.06;1041411;28;1396;-67
2023/04/09 02:54:12;;;;;;;;;;;;;;;16.07;66.87;102241.09;1041229;28;1408;-67
2023/04/09 02:55:03;;;;;;;;;;;;;;;16.06;67.27;102239.38;1045779;28;705;-67
2023/04/09 02:55:53;;;;;;;;;;;;;;;16.06;67.33;102234.84;1044571;28;1411;-67
2023/04/09 02:56:43;;;;;;;;;;;;;;;16.08;67.01;102238.31;1043522;28;1428;-68
2023/04/09 02:57:35;;;;;;;;;;;;;;;16.10;66.58;102239.06;1040881;28;1416;-66
2023/04/09 02:58:25;;;;;;;;;;;;;;;16.09;66.66;102239.16;1040779;28;1539;-66
2023/04/09 02:59:16;;;;;;;;;;;;;;;16.07;66.85;102239.25;1041673;28;1372;-67
2023/04/09 03:00:06;;;;;;;;;;;;;;;16.06;66.57;102248.28;1044460;28;1218;-67
2023/04/09 03:00:56;;;;;;;;;;;;;;;16.02;66.98;102238.69;1045069;28;1332;-67
2023/04/09 03:01:47;;;;;;;;;;;;;;;16.05;67.26;102238.50;1045137;28;932;-66
2023/04/09 03:02:37;;;;;;;;;;;;;;;16.06;67.10;102232.16;1042871;28;669;-67
2023/04/09 03:03:29;;;;;;;;;;;;;;;16.05;67.76;102235.81;1043039;28;1368;-67
2023/04/09 03:04:19;;;;;;;;;;;;;;;16.05;66.97;102233.13;1040759;28;1467;-67
2023/04/09 03:05:10;;;;;;;;;;;;;;;16.04;67.45;102230.53;1041207;28;1507;-67
2023/04/09 03:06:00;;;;;;;;;;;;;;;16.07;67.32;102236.56;1044783;28;1473;-67
2023/04/09 03:06:51;;;;;;;;;;;;;;;16.05;67.24;102230.44;1041668;28;1542;-67
2023/04/09 03:07:41;;;;;;;;;;;;;;;16.06;66.96;102231.28;1041765;28;1424;-67
2023/04/09 03:08:31;;;;;;;;;;;;;;;16.06;66.73;102232.16;1041751;28;1378;-67
2023/04/09 03:09:22;;;;;;;;;;;;;;;16.06;67.03;102232.16;1043051;28;1337;-67
2023/04/09 03:10:12;;;;;;;;;;;;;;;16.06;66.71;102228.59;1041189;28;1263;-67
2023/04/09 03:11:03;;;;;;;;;;;;;;;16.06;66.92;102229.47;1040984;28;1353;-67
2023/04/09 03:11:55;;;;;;;;;;;;;;;16.06;67.04;102228.59;1041132;28;1339;-67
2023/04/09 03:12:46;;;;;;;;;;;;;;;16.04;66.98;102228.72;1040324;28;1373;-67
2023/04/09 03:13:37;;;;;;;;;;;;;;;16.04;66.86;102226.03;1042281;28;653;-67
2023/04/09 03:14:27;;;;;;;;;;;;;;;16.03;67.14;102224.28;1041504;28;1376;-68
2023/04/09 03:15:18;;;;;;;;;;;;;;;16.03;67.14;102218.91;1042200;28;1211;-67
2023/04/09 03:16:09;;;;;;;;;;;;;;;16.04;67.43;102226.03;1042729;28;1914;-67
2023/04/09 03:16:59;;;;;;;;;;;;;;;16.03;67.13;102224.28;1041949;28;889;-67
2023/04/09 03:17:49;;;;;;;;;;;;;;;16.04;67.29;102220.63;1043234;28;776;-67
2023/04/09 03:18:40;;;;;;;;;;;;;;;16.04;67.30;102227.84;1041307;28;598;-67
2023/04/09 03:19:30;;;;;;;;;;;;;;;16.05;67.04;102222.38;1043503;28;1060;-67
2023/04/09 03:20:21;;;;;;;;;;;;;;;16.04;67.27;102223.31;1042911;28;1430;-67
2023/04/09 03:21:11;;;;;;;;;;;;;;;16.03;67.15;102223.44;1042682;28;1429;-67
2023/04/09 03:22:02;;;;;;;;;;;;;;;16.03;67.57;102223.44;1044241;28;1560;-69
2023/04/09 03:22:52;;;;;;;;;;;;;;;16.02;67.37;102224.38;1044277;28;1606;-67
2023/04/09 03:23:42;;;;;;;;;;;;;;;16.01;67.38;102226.22;1042808;28;681;-68
2023/04/09 03:24:33;;;;;;;;;;;;;;;16.01;67.72;102226.22;1041853;28;893;-68
2023/04/09 03:25:23;;;;;;;;;;;;;;;16.03;67.43;102221.59;1044015;28;1428;-68
2023/04/09 03:26:14;;;;;;;;;;;;;;;16.01;67.30;102226.22;1041659;28;1361;-67
2023/04/09 03:27:04;;;;;;;;;;;;;;;16.01;67.47;102218.16;1044140;28;1575;-68
2023/04/09 03:27:55;;;;;;;;;;;;;;;16.02;67.58;102222.56;1043926;28;1445;-68
2023/04/09 03:28:45;;;;;;;;;;;;;;;16.03;67.30;102220.75;1045696;28;706;-68
2023/04/09 03:29:36;;;;;;;;;;;;;;;16.02;67.02;102224.38;1042618;28;1409;-67
2023/04/09 03:30:26;;;;;;;;;;;;;;;15.99;67.35;102220.06;1041144;28;1400;-68
2023/04/09 03:31:16;;;;;;;;;;;;;;;15.95;67.49;102221.22;1041299;28;642;-68
2023/04/09 03:32:07;;;;;;;;;;;;;;;15.97;67.62;102222.00;1041933;28;661;-67
2023/04/09 03:32:58;;;;;;;;;;;;;;;15.97;67.43;102222.00;1041921;28;1315;-68
2023/04/09 03:33:48;;;;;;;;;;;;;;;15.97;67.56;102222.84;1042718;28;1362;-67
2023/04/09 03:34:39;;;;;;;;;;;;;;;15.98;67.33;102216.50;1041419;28;1450;-67
2023/04/09 03:35:29;;;;;;;;;;;;;;;15.98;67.46;102218.34;1045025;28;630;-67
2023/04/09 03:36:20;;;;;;;;;;;;;;;15.93;67.32;102217.81;1040927;28;1951;-67
2023/04/09 03:37:10;;;;;;;;;;;;;;;15.94;67.40;102224.91;1044607;28;682;-68
2023/04/09 03:38:01;;;;;;;;;;;;;;;15.95;67.38;102214.03;1043500;28;1218;-67
2023/04/09 03:38:51;;;;;;;;;;;;;;;15.95;67.25;102221.22;1043929;28;1677;-68
2023/04/09 03:39:41;;;;;;;;;;;;;;;15.97;67.18;102224.69;1044736;28;1477;-68
2023/04/09 03:40:32;;;;;;;;;;;;;;;15.97;67.09;102211.25;1043542;28;1515;-68
2023/04/09 03:41:22;;;;;;;;;;;;;;;15.98;67.58;102215.66;1044988;28;1377;-67
2023/04/09 03:42:13;;;;;;;;;;;;;;;15.96;67.48;102214.88;1044546;28;921;-67
2023/04/09 03:43:06;;;;;;;;;;;;;;;15.94;67.52;102219.53;1042092;28;1328;-68
2023/04/09 03:43:56;;;;;;;;;;;;;;;15.91;67.53;102209.84;1043472;28;1294;-67
2023/04/09 03:44:47;;;;;;;;;;;;;;;15.93;67.42;102215.13;1044083;28;1332;-67
2023/04/09 03:45:37;;;;;;;;;;;;;;;15.91;67.68;102208.97;1041664;28;1444;-67
2023/04/09 03:46:28;;;;;;;;;;;;;;;15.92;67.49;102216.06;1042947;28;1347;-67
2023/04/09 03:47:18;;;;;;;;;;;;;;;15.87;67.51;102212.81;1041721;28;1431;-66
2023/04/09 03:48:08;;;;;;;;;;;;;;;15.87;67.39;102219.06;1041478;28;1463;-67
2023/04/09 03:48:59;;;;;;;;;;;;;;;15.90;67.41;102209.94;1042786;28;1408;-67
2023/04/09 03:49:49;;;;;;;;;;;;;;;15.90;67.56;102218.88;1043706;28;1557;-67
2023/04/09 03:50:40;;;;;;;;;;;;;;;15.89;67.64;102210.91;1040245;28;651;-67
2023/04/09 03:51:30;;;;;;;;;;;;;;;15.89;67.54;102208.22;1042431;28;1360;-67
2023/04/09 03:52:21;;;;;;;;;;;;;;;15.90;67.56;102218.00;1044092;28;1408;-67
2023/04/09 03:53:11;;;;;;;;;;;;;;;15.92;67.33;102211.56;1044813;28;694;-68
2023/04/09 03:54:02;;;;;;;;;;;;;;;15.93;67.44;102212.44;1045466;28;638;-67
2023/04/09 03:54:52;;;;;;;;;;;;;;;15.92;67.13;102211.56;1044805;28;992;-67
2023/04/09 03:55:43;;;;;;;;;;;;;;;15.94;67.50;102219.53;1043683;28;1364;-67
2023/04/09 03:56:33;;;;;;;;;;;;;;;15.95;67.28;102205.09;1040670;28;1302;-67
2023/04/09 03:57:24;;;;;;;;;;;;;;;15.93;67.26;102215.97;1042179;28;972;-67
2023/04/09 03:58:14;;;;;;;;;;;;;;;15.92;67.06;102208.00;1044838;28;1361;-67
2023/04/09 03:59:05;;;;;;;;;;;;;;;15.87;67.40;102207.44;1044180;28;1377;-67
2023/04/09 03:59:55;;;;;;;;;;;;;;;15.88;67.28;102214.53;1045650;28;681;-67
2023/04/09 04:00:46;;;;;;;;;;;;;;;15.88;67.63;102214.53;1040869;28;952;-67
2023/04/09 04:01:36;;;;;;;;;;;;;;;15.90;67.54;102209.94;1045096;28;618;-67
2023/04/09 04:02:30;;;;;;;;;;;;;;;15.88;67.62;102204.66;1041588;28;713;-66
2023/04/09 04:03:20;;;;;;;;;;;;;;;15.88;67.36;102203.78;1041739;28;1380;-66
2023/04/09 04:04:10;;;;;;;;;;;;;;;15.91;67.60;102208.97;1044272;28;1258;-66
2023/04/09 04:05:01;;;;;;;;;;;;;;;15.89;67.28;102211.75;1041533;28;674;-67
2023/04/09 04:05:51;;;;;;;;;;;;;;;15.91;67.19;102207.16;1044169;28;925;-67
2023/04/09 04:06:42;;;;;;;;;;;;;;;15.89;67.70;102206.38;1041646;28;665;-66
2023/04/09 04:07:32;;;;;;;;;;;;;;;15.90;67.52;102196.50;1041421;28;1400;-67
2023/04/09 04:08:23;;;;;;;;;;;;;;;15.91;67.54;102203.59;1042167;28;1320;-67
2023/04/09 04:09:13;;;;;;;;;;;;;;;15.92;67.21;102206.19;1044384;28;1516;-68
2023/04/09 04:10:04;;;;;;;;;;;;;;;15.92;67.23;102203.50;1044466;28;1397;-67
2023/04/09 04:10:54;;;;;;;;;;;;;;;15.93;67.55;102197.16;1045004;28;666;-67
2023/04/09 04:11:45;;;;;;;;;;;;;;;15.92;67.64;102200.81;1041968;28;1210;-67
2023/04/09 04:12:35;;;;;;;;;;;;;;;15.90;67.03;102193.81;1044113;28;1504;-67
2023/04/09 04:13:25;;;;;;;;;;;;;;;15.87;67.65;102194.00;1043797;28;1317;-67
2023/04/09 04:14:16;;;;;;;;;;;;;;;15.86;67.49;102201.19;1041651;28;1489;-67
2023/04/09 04:15:06;;;;;;;;;;;;;;;15.87;67.97;102202.94;1044384;28;1388;-67
2023/04/09 04:15:57;;;;;;;;;;;;;;;15.86;67.44;102195.81;1044151;28;1424;-67
2023/04/09 04:16:47;;;;;;;;;;;;;;;15.87;67.74;102196.69;1045170;28;1267;-67
2023/04/09 04:17:38;;;;;;;;;;;;;;;15.89;67.52;102201.00;1040482;28;1000;-67
2023/04/09 04:18:28;;;;;;;;;;;;;;;15.89;67.38;102202.84;1040681;28;685;-66
2023/04/09 04:19:19;;;;;;;;;;;;;;;15.90;67.58;102196.50;1043013;28;1337;-67
2023/04/09 04:20:09;;;;;;;;;;;;;;;15.90;67.33;102201.88;1041421;28;690;-67
2023/04/09 04:21:00;;;;;;;;;;;;;;;15.88;67.60;102193.03;1042496;28;1408;-67
2023/04/09 04:21:50;;;;;;;;;;;;;;;15.86;67.60;102194.97;1041939;28;1361;-67
2023/04/09 04:22:41;;;;;;;;;;;;;;;15.83;67.53;102192.47;1044853;28;1562;-67
2023/04/09 04:23:31;;;;;;;;;;;;;;;15.84;67.55;102191.50;1043554;28;1351;-67
2023/04/09 04:24:21;;;;;;;;;;;;;;;15.86;67.55;102193.13;1044183;28;1549;-66